PINE FLAT DAM (PNF)

Elevation: 970' · KINGS R basin · Operator: US Army Corps of Engineers

Provisional data, subject to change.
Query executed Saturday at 11:05:07   clock

Select a sensor type for a plot of data.
Note: Reservoir Flows are daily averages.

Earlier

Date RES ELE    STORAGE    RES CHG    TOC STO    ABV TOC    OUTFLOW    INFLOW    FNF    PPT INC    TEMP MN    TEMP MX    WINDLEN    EVP PAN   
 FEET   AF   AF   AF   AF   CFS   CFS   CFS   INCHES   DEG F   DEG F   MILES   INCHES  
07/31/2014 733.67 140470 -3360 1000000 -- 2380 705 280 0.00 -- -- 55 0.29
08/01/2014 732.17 137350 -3120 1000000 -862650 2322 772 420 0.00 -- -- 55 0.29
08/02/2014 730.55 134030 -3320 1000000 -- 2272 615 347 0.00 -- -- 45 0.26
08/03/2014 728.88 130650 -3380 1000000 -869350 2359 663 231 0.00 -- -- 28 0.13
08/04/2014 727.53 127950 -2700 1000000 -872050 2462 1112 745 0.00 -- -- 47 0.18
08/05/2014 726.36 125630 -2320 1000000 -874370 2219 1070 626 0.00 -- -- 53 0.27
08/06/2014 725.12 123200 -2430 1000000 -876800 2120 911 549 0.00 -- -- 50 0.25
08/07/2014 724.39 121780 -1420 1000000 -878220 1445 748 442 0.00 -- -- 49 0.28
08/08/2014 723.75 120540 -1240 1000000 -879460 1406 800 402 0.00 -- -- 50 0.28
08/09/2014 723.05 119200 -1340 1000000 -880800 1355 695 422 0.00 -- -- 54 0.29
08/10/2014 722.37 117900 -1300 1000000 -882100 1316 679 296 0.00 -- -- 56 0.29
08/11/2014 721.98 117150 -750 1000000 -882850 1164 807 427 0.00 -- -- 49 0.27
08/12/2014 721.87 116940 -210 1000000 -883060 943 856 505 e 0.00 -- -- 50 0.27
08/13/2014 721.89 116980 40 1000000 -883020 820 857 505 e 0.00 -- -- 59 0.28
08/14/2014 721.88 116960 -20 1000000 -883040 728 736 442 0.00 -- -- 48 0.27
08/15/2014 721.90 117000 40 1000000 -883000 705 743 379 0.00 -- -- 52 0.28
08/16/2014 721.88 116960 -40 1000000 -883040 677 676 288 0.00 -- -- 50 0.28
08/17/2014 721.69 116600 -360 1000000 -883400 727 564 240 0.00 -- -- 51 0.28
08/18/2014 721.34 115940 -660 1000000 -884060 906 590 229 0.00 -- -- 50 0.27
08/19/2014 720.88 115070 -870 1000000 -884930 909 488 253 0.00 -- -- 54 0.25
08/20/2014 720.38 114130 -940 1000000 -885870 872 414 225 0.00 -- -- 49 0.25
08/21/2014 719.87 113180 -950 1000000 -886820 889 425 160 0.00 -- -- 53 0.26
08/22/2014 719.39 112290 -890 1000000 -887710 901 467 166 e 0.00 -- -- 48 0.26
08/23/2014 719.16 111860 -430 1000000 -888140 706 507 124 0.00 -- -- 49 0.25
08/24/2014 718.84 111270 -590 1000000 -888730 702 420 166 e 0.00 -- -- 52 0.26
08/25/2014 718.92 111410 140 1000000 -888590 398 488 143 0.00 -- -- 51 0.23
08/26/2014 719.17 111880 470 1000000 -888120 387 637 136 0.00 -- -- 49 0.24
08/27/2014 719.45 112400 520 1000000 -887600 380 658 245 0.00 -- -- 53 0.26
08/28/2014 719.70 112860 -- 1000000 -887080 378 630 110 0.00 -- -- 52 0.27
08/29/2014 720.03 113480 620 1000000 -886520 377 704 216 0.00 -- -- 52 0.25
08/30/2014 -- -- -- -- -- -- -- -- -- -- -- -- --

Later | Latest

Warning! This data is preliminary and subject to revision.

Download Data Now Download Data Now | Show PNF Map | Plot PNF Data | 1 Month PNF Data | Real-Time PNF Data | PNF Info